createdAt,value
2022-08-16T00:00:38.764Z,97.47
2022-08-16T00:05:35.063Z,96.30
2022-08-16T00:10:26.898Z,96.17
2022-08-16T00:15:21.558Z,95.33
2022-08-16T00:20:12.727Z,95.53
2022-08-16T00:25:05.240Z,95.42
2022-08-16T00:30:00.668Z,96.27
2022-08-16T00:34:53.262Z,96.57
2022-08-16T00:39:44.788Z,96.93
2022-08-16T00:44:38.170Z,97.97
2022-08-16T00:49:28.076Z,99.38
2022-08-16T00:54:17.859Z,99.55
2022-08-16T00:59:15.232Z,100.00
2022-08-16T01:04:30.340Z,100.00
2022-08-16T01:09:20.807Z,99.79
2022-08-16T01:14:20.375Z,99.82
2022-08-16T01:19:24.200Z,100.00
2022-08-16T01:24:52.646Z,99.94
2022-08-16T01:29:57.561Z,100.00
2022-08-16T01:34:53.736Z,100.00
2022-08-16T01:39:49.699Z,100.00
2022-08-16T01:44:40.603Z,100.00
2022-08-16T01:49:42.935Z,100.00
2022-08-16T01:54:45.367Z,100.00
2022-08-16T01:59:39.214Z,100.00
2022-08-16T02:04:48.710Z,100.00
2022-08-16T02:09:42.525Z,100.00
2022-08-16T02:14:50.983Z,100.00
2022-08-16T02:19:59.140Z,100.00
2022-08-16T02:24:50.939Z,100.00
2022-08-16T02:29:43.097Z,100.00
2022-08-16T02:34:40.989Z,100.00
2022-08-16T02:39:32.654Z,100.00
2022-08-16T02:44:23.779Z,100.00
2022-08-16T02:49:17.602Z,100.00
2022-08-16T02:54:16.907Z,100.00
2022-08-16T02:59:11.336Z,100.00
2022-08-16T03:04:41.329Z,100.00
2022-08-16T03:09:21.436Z,100.00
2022-08-16T03:14:21.388Z,100.00
2022-08-16T03:19:16.193Z,100.00
2022-08-16T03:24:28.675Z,100.00
2022-08-16T03:29:21.591Z,100.00
2022-08-16T03:34:13.738Z,100.00
2022-08-16T03:39:05.378Z,100.00
2022-08-16T03:44:07.235Z,100.00
2022-08-16T03:49:05.751Z,100.00
2022-08-16T03:54:01.503Z,100.00
2022-08-16T03:58:56.319Z,100.00
2022-08-16T04:03:53.010Z,100.00
2022-08-16T04:08:48.423Z,100.00
2022-08-16T04:14:01.433Z,100.00
2022-08-16T04:18:49.764Z,100.00
2022-08-16T04:23:40.012Z,100.00
2022-08-16T04:28:53.398Z,100.00
2022-08-16T04:33:50.873Z,100.00
2022-08-16T04:38:42.996Z,100.00
2022-08-16T04:43:38.590Z,100.00
2022-08-16T04:48:34.627Z,100.00
2022-08-16T04:53:31.265Z,100.00
2022-08-16T04:58:44.251Z,100.00
2022-08-16T05:03:33.649Z,100.00
2022-08-16T05:08:29.598Z,100.00
2022-08-16T05:13:40.557Z,100.00
2022-08-16T05:18:37.225Z,100.00
2022-08-16T05:23:31.710Z,100.00
2022-08-16T05:28:37.371Z,100.00
2022-08-16T05:33:29.140Z,100.00
2022-08-16T05:38:32.407Z,100.00
2022-08-16T05:43:43.564Z,100.00
2022-08-16T05:48:37.440Z,100.00
2022-08-16T05:53:38.680Z,100.00
2022-08-16T05:58:34.268Z,100.00
2022-08-16T06:03:29.568Z,100.00
2022-08-16T06:08:44.713Z,100.00
2022-08-16T06:13:37.898Z,100.00
2022-08-16T06:18:34.001Z,100.00
2022-08-16T06:23:24.208Z,100.00
2022-08-16T06:28:34.930Z,100.00
2022-08-16T06:33:26.167Z,100.00
2022-08-16T06:38:33.050Z,100.00
2022-08-16T06:43:31.881Z,100.00
2022-08-16T06:48:32.725Z,100.00
2022-08-16T06:53:24.545Z,100.00
2022-08-16T06:58:22.709Z,100.00
2022-08-16T07:03:55.525Z,100.00
2022-08-16T07:08:46.522Z,100.00
2022-08-16T07:14:03.578Z,100.00
2022-08-16T07:18:58.822Z,100.00
2022-08-16T07:23:57.983Z,100.00
2022-08-16T07:28:56.744Z,100.00
2022-08-16T07:33:52.447Z,100.00
2022-08-16T07:38:53.192Z,100.00
2022-08-16T07:43:44.136Z,100.00
2022-08-16T07:48:36.266Z,100.00
2022-08-16T07:53:28.932Z,100.00
2022-08-16T07:58:35.011Z,100.00
2022-08-16T08:03:38.761Z,100.00
2022-08-16T08:08:50.424Z,100.00
2022-08-16T08:13:44.156Z,100.00
2022-08-16T08:18:38.533Z,100.00
2022-08-16T08:23:29.365Z,100.00
2022-08-16T08:28:20.568Z,100.00
2022-08-16T08:33:15.206Z,98.04
2022-08-16T08:38:08.654Z,97.30
2022-08-16T08:43:11.708Z,96.61
2022-08-16T08:48:07.713Z,95.14
2022-08-16T08:53:02.948Z,94.53
2022-08-16T08:57:58.178Z,93.25
2022-08-16T09:03:17.218Z,91.40
2022-08-16T09:08:17.355Z,90.25
2022-08-16T09:13:14.527Z,87.23
2022-08-16T09:18:26.449Z,85.16
2022-08-16T09:23:20.246Z,82.62
2022-08-16T09:28:14.469Z,82.13
2022-08-16T09:33:37.384Z,79.32
2022-08-16T09:38:32.954Z,78.68
2022-08-16T09:43:53.315Z,77.64
2022-08-16T09:48:44.777Z,76.55
2022-08-16T09:53:45.067Z,75.22
2022-08-16T09:59:05.401Z,74.13
2022-08-16T10:04:04.550Z,72.97
2022-08-16T10:09:05.584Z,71.62
2022-08-16T10:13:59.533Z,69.02
2022-08-16T10:19:06.714Z,68.10
2022-08-16T10:24:00.473Z,67.14
2022-08-16T10:28:53.765Z,68.34
2022-08-16T10:33:45.352Z,68.79
2022-08-16T10:38:38.692Z,70.08
2022-08-16T10:43:31.840Z,70.32
2022-08-16T10:48:28.575Z,71.33
2022-08-16T10:53:21.593Z,69.54
2022-08-16T10:58:17.330Z,64.94
2022-08-16T11:08:23.566Z,62.54
2022-08-16T11:19:02.940Z,61.78
2022-08-16T11:23:59.879Z,61.79
2022-08-16T11:34:05.092Z,60.28
2022-08-16T11:39:00.524Z,59.03
2022-08-16T11:43:51.488Z,58.83
2022-08-16T11:48:42.355Z,58.39
2022-08-16T11:53:36.801Z,58.80
2022-08-16T11:58:28.513Z,59.02
2022-08-16T12:03:20.458Z,59.35
2022-08-16T12:08:27.266Z,59.88
2022-08-16T12:13:21.335Z,61.25
2022-08-16T12:18:13.604Z,61.44
2022-08-16T12:23:12.389Z,62.66
2022-08-16T12:28:04.788Z,62.75
2022-08-16T12:33:03.208Z,61.19
2022-08-16T12:37:56.605Z,60.40
2022-08-16T12:42:53.053Z,59.49
2022-08-16T12:48:29.502Z,58.10
2022-08-16T12:53:23.560Z,57.27
2022-08-16T12:58:49.276Z,56.32
2022-08-16T13:03:40.034Z,53.91
2022-08-16T13:08:36.531Z,51.37
2022-08-16T13:13:31.754Z,48.33
2022-08-16T13:18:34.119Z,47.33
2022-08-16T13:23:27.186Z,47.25
2022-08-16T13:28:24.145Z,46.90
2022-08-16T13:33:26.190Z,46.74
2022-08-16T13:38:27.455Z,46.33
2022-08-16T13:43:26.619Z,45.41
2022-08-16T13:48:21.796Z,45.31
2022-08-16T13:53:28.495Z,44.96
2022-08-16T13:58:36.516Z,46.44
2022-08-16T14:03:31.871Z,46.90
2022-08-16T14:08:27.252Z,45.98
2022-08-16T14:13:23.690Z,46.60
2022-08-16T14:18:17.093Z,48.90
2022-08-16T14:23:13.837Z,48.40
2022-08-16T14:28:04.687Z,48.66
2022-08-16T14:33:09.655Z,48.17
2022-08-16T14:38:06.105Z,49.06
2022-08-16T14:43:07.370Z,49.64
2022-08-16T14:48:01.429Z,49.62
2022-08-16T14:53:00.764Z,49.62
2022-08-16T14:57:54.872Z,48.20
2022-08-16T15:02:54.223Z,46.54
2022-08-16T15:07:46.123Z,46.76
2022-08-16T15:12:36.998Z,45.59
2022-08-16T15:17:33.960Z,46.64
2022-08-16T15:22:33.021Z,45.03
2022-08-16T15:27:27.644Z,46.48
2022-08-16T15:32:29.198Z,40.77
2022-08-16T15:37:25.332Z,41.38
2022-08-16T15:42:41.985Z,40.96
2022-08-16T15:47:38.183Z,38.31
2022-08-16T15:52:35.470Z,40.09
2022-08-16T15:57:41.189Z,42.06
2022-08-16T16:02:35.574Z,42.11
2022-08-16T16:07:30.339Z,41.29
2022-08-16T16:12:53.096Z,42.30
2022-08-16T16:22:46.825Z,43.98
2022-08-16T16:27:39.801Z,44.32
2022-08-16T16:32:37.864Z,45.07
2022-08-16T16:37:31.404Z,45.64
2022-08-16T16:42:30.079Z,46.94
2022-08-16T16:47:24.167Z,46.73
2022-08-16T16:52:43.346Z,46.60
2022-08-16T16:57:45.896Z,47.25
2022-08-16T17:02:41.406Z,47.25
2022-08-16T17:07:43.044Z,47.18
2022-08-16T17:12:47.232Z,47.30
2022-08-16T17:19:14.724Z,47.75
2022-08-16T17:22:54.555Z,49.26
2022-08-16T17:27:51.073Z,53.82
2022-08-16T17:32:48.677Z,56.24
2022-08-16T17:37:51.678Z,57.11
2022-08-16T17:42:48.264Z,57.78
2022-08-16T17:47:39.628Z,58.60
2022-08-16T17:52:31.932Z,60.56
2022-08-16T17:57:22.851Z,63.52
2022-08-16T18:02:43.550Z,65.38
2022-08-16T18:07:30.078Z,64.48
2022-08-16T18:12:44.326Z,63.73
2022-08-16T18:17:39.013Z,63.08
2022-08-16T18:22:33.899Z,62.34
2022-08-16T18:27:28.737Z,62.00
2022-08-16T18:32:26.099Z,61.41
2022-08-16T18:37:22.716Z,61.83
2022-08-16T18:42:21.271Z,62.98
2022-08-16T18:47:14.837Z,63.63
2022-08-16T18:52:09.350Z,65.37
2022-08-16T18:57:07.391Z,70.19
2022-08-16T19:02:04.557Z,73.69
2022-08-16T19:06:56.392Z,73.86
2022-08-16T19:11:47.482Z,74.47
2022-08-16T19:16:43.653Z,75.12
2022-08-16T19:21:34.480Z,75.26
2022-08-16T19:26:26.278Z,75.30
2022-08-16T19:31:19.033Z,73.73
2022-08-16T19:36:30.400Z,73.61
2022-08-16T19:41:24.781Z,73.98
2022-08-16T19:46:16.164Z,73.93
2022-08-16T19:51:08.940Z,74.66
2022-08-16T19:56:02.136Z,75.65
2022-08-16T20:00:56.882Z,76.75
2022-08-16T20:05:51.771Z,77.80
2022-08-16T20:10:45.525Z,78.78
2022-08-16T20:15:41.075Z,79.85
2022-08-16T20:20:32.688Z,80.91
2022-08-16T20:25:28.173Z,80.93
2022-08-16T20:30:20.634Z,80.86
2022-08-16T20:35:15.651Z,81.08
2022-08-16T20:40:29.587Z,79.83
2022-08-16T20:45:21.797Z,79.55
2022-08-16T20:50:20.572Z,79.33
2022-08-16T20:55:12.108Z,78.49
2022-08-16T21:00:07.501Z,77.40
2022-08-16T21:04:57.872Z,76.17
2022-08-16T21:09:53.122Z,75.08
2022-08-16T21:14:44.138Z,76.09
2022-08-16T21:19:35.613Z,75.56
2022-08-16T21:24:26.477Z,75.43
2022-08-16T21:29:19.430Z,75.43
2022-08-16T21:34:09.511Z,75.18
2022-08-16T21:38:59.265Z,76.00
2022-08-16T21:43:48.935Z,76.98
2022-08-16T21:48:41.235Z,78.05
2022-08-16T21:53:31.022Z,78.79
2022-08-16T21:58:20.789Z,79.07
2022-08-16T22:03:12.683Z,78.85
2022-08-16T22:08:05.547Z,78.78
2022-08-16T22:12:55.977Z,79.66
2022-08-16T22:17:45.769Z,80.49
2022-08-16T22:22:36.074Z,80.05
2022-08-16T22:27:28.491Z,80.88
2022-08-16T22:32:18.355Z,81.51
2022-08-16T22:37:08.244Z,82.46
2022-08-16T22:41:59.109Z,82.40
2022-08-16T22:46:51.938Z,82.59
2022-08-16T22:51:43.054Z,83.29
2022-08-16T22:56:32.696Z,84.12
2022-08-16T23:01:24.942Z,85.42
2022-08-16T23:06:17.525Z,86.42
2022-08-16T23:11:08.057Z,86.50
2022-08-16T23:16:02.196Z,86.26
2022-08-16T23:20:52.349Z,86.51
2022-08-16T23:25:51.680Z,86.67
2022-08-16T23:30:45.050Z,86.67
2022-08-16T23:35:45.378Z,86.86
2022-08-16T23:40:36.232Z,87.54
2022-08-16T23:45:30.484Z,88.65
2022-08-16T23:50:20.935Z,89.20
2022-08-16T23:55:11.766Z,90.00
